sensor_id;sensor_type;location;lat;lon;timestamp;P1;durP1;ratioP1;P2;durP2;ratioP2
2404;SDS011;1213;43.206;27.922;2023-07-20T00:01:37;8.10;;;5.77;;
2404;SDS011;1213;43.206;27.922;2023-07-20T00:04:03;7.27;;;6.37;;
2404;SDS011;1213;43.206;27.922;2023-07-20T00:06:28;6.30;;;5.70;;
2404;SDS011;1213;43.206;27.922;2023-07-20T00:08:54;7.87;;;6.90;;
2404;SDS011;1213;43.206;27.922;2023-07-20T00:11:20;9.77;;;6.30;;
2404;SDS011;1213;43.206;27.922;2023-07-20T00:13:47;6.27;;;5.67;;
2404;SDS011;1213;43.206;27.922;2023-07-20T00:16:12;6.00;;;5.50;;
2404;SDS011;1213;43.206;27.922;2023-07-20T00:18:38;6.80;;;5.77;;
2404;SDS011;1213;43.206;27.922;2023-07-20T00:21:03;8.40;;;5.07;;
2404;SDS011;1213;43.206;27.922;2023-07-20T00:23:29;6.10;;;5.60;;
2404;SDS011;1213;43.206;27.922;2023-07-20T00:25:54;10.30;;;7.23;;
2404;SDS011;1213;43.206;27.922;2023-07-20T00:28:20;9.67;;;6.43;;
2404;SDS011;1213;43.206;27.922;2023-07-20T00:30:45;24.97;;;6.50;;
2404;SDS011;1213;43.206;27.922;2023-07-20T00:33:11;12.70;;;6.93;;
2404;SDS011;1213;43.206;27.922;2023-07-20T00:35:37;6.97;;;6.30;;
2404;SDS011;1213;43.206;27.922;2023-07-20T00:38:03;6.97;;;6.37;;
2404;SDS011;1213;43.206;27.922;2023-07-20T00:40:35;6.47;;;5.60;;
2404;SDS011;1213;43.206;27.922;2023-07-20T00:43:04;9.20;;;6.50;;
2404;SDS011;1213;43.206;27.922;2023-07-20T00:45:30;7.80;;;5.83;;
2404;SDS011;1213;43.206;27.922;2023-07-20T00:47:56;9.87;;;6.13;;
2404;SDS011;1213;43.206;27.922;2023-07-20T00:50:23;6.10;;;5.50;;
2404;SDS011;1213;43.206;27.922;2023-07-20T00:52:49;7.63;;;5.63;;
2404;SDS011;1213;43.206;27.922;2023-07-20T00:55:15;8.60;;;5.60;;
2404;SDS011;1213;43.206;27.922;2023-07-20T00:57:40;9.47;;;6.17;;
2404;SDS011;1213;43.206;27.922;2023-07-20T01:00:06;6.90;;;6.07;;
2404;SDS011;1213;43.206;27.922;2023-07-20T01:02:33;13.47;;;6.97;;
2404;SDS011;1213;43.206;27.922;2023-07-20T01:04:58;7.97;;;7.13;;
2404;SDS011;1213;43.206;27.922;2023-07-20T01:07:29;8.10;;;6.83;;
2404;SDS011;1213;43.206;27.922;2023-07-20T01:12:43;7.43;;;5.60;;
2404;SDS011;1213;43.206;27.922;2023-07-20T01:15:12;8.50;;;5.13;;
2404;SDS011;1213;43.206;27.922;2023-07-20T01:17:38;6.53;;;6.00;;
2404;SDS011;1213;43.206;27.922;2023-07-20T01:20:03;6.00;;;5.47;;
2404;SDS011;1213;43.206;27.922;2023-07-20T01:25:25;5.83;;;5.23;;
2404;SDS011;1213;43.206;27.922;2023-07-20T01:33:17;5.90;;;5.40;;
2404;SDS011;1213;43.206;27.922;2023-07-20T01:35:44;8.37;;;5.90;;
2404;SDS011;1213;43.206;27.922;2023-07-20T01:38:15;6.47;;;5.77;;
2404;SDS011;1213;43.206;27.922;2023-07-20T01:40:46;6.27;;;5.67;;
2404;SDS011;1213;43.206;27.922;2023-07-20T01:43:12;7.60;;;6.90;;
2404;SDS011;1213;43.206;27.922;2023-07-20T01:45:38;6.93;;;6.33;;
2404;SDS011;1213;43.206;27.922;2023-07-20T01:48:03;6.87;;;6.27;;
2404;SDS011;1213;43.206;27.922;2023-07-20T01:50:29;7.00;;;6.40;;
2404;SDS011;1213;43.206;27.922;2023-07-20T01:52:54;8.73;;;6.57;;
2404;SDS011;1213;43.206;27.922;2023-07-20T01:55:20;7.60;;;6.80;;
2404;SDS011;1213;43.206;27.922;2023-07-20T01:57:45;7.90;;;7.20;;
2404;SDS011;1213;43.206;27.922;2023-07-20T02:00:11;13.60;;;6.80;;
2404;SDS011;1213;43.206;27.922;2023-07-20T02:02:37;9.27;;;6.67;;
2404;SDS011;1213;43.206;27.922;2023-07-20T02:05:02;8.63;;;7.80;;
2404;SDS011;1213;43.206;27.922;2023-07-20T02:07:28;9.83;;;8.70;;
2404;SDS011;1213;43.206;27.922;2023-07-20T02:09:53;8.40;;;7.60;;
2404;SDS011;1213;43.206;27.922;2023-07-20T02:12:19;10.37;;;8.50;;
2404;SDS011;1213;43.206;27.922;2023-07-20T02:14:44;12.10;;;7.67;;
2404;SDS011;1213;43.206;27.922;2023-07-20T02:17:11;9.97;;;8.20;;
2404;SDS011;1213;43.206;27.922;2023-07-20T02:19:37;8.67;;;7.30;;
2404;SDS011;1213;43.206;27.922;2023-07-20T02:22:02;8.73;;;6.60;;
2404;SDS011;1213;43.206;27.922;2023-07-20T02:24:28;10.30;;;6.60;;
2404;SDS011;1213;43.206;27.922;2023-07-20T02:26:53;6.20;;;5.60;;
2404;SDS011;1213;43.206;27.922;2023-07-20T02:29:21;7.97;;;6.30;;
2404;SDS011;1213;43.206;27.922;2023-07-20T02:31:47;13.33;;;7.50;;
2404;SDS011;1213;43.206;27.922;2023-07-20T02:34:13;7.93;;;5.90;;
2404;SDS011;1213;43.206;27.922;2023-07-20T02:36:38;5.97;;;5.47;;
2404;SDS011;1213;43.206;27.922;2023-07-20T02:39:04;6.77;;;6.13;;
2404;SDS011;1213;43.206;27.922;2023-07-20T02:41:33;4.17;;;3.77;;
2404;SDS011;1213;43.206;27.922;2023-07-20T02:43:58;5.27;;;4.77;;
2404;SDS011;1213;43.206;27.922;2023-07-20T02:46:24;5.77;;;5.27;;
2404;SDS011;1213;43.206;27.922;2023-07-20T02:48:49;6.93;;;5.60;;
2404;SDS011;1213;43.206;27.922;2023-07-20T02:51:15;7.00;;;6.30;;
2404;SDS011;1213;43.206;27.922;2023-07-20T02:53:40;6.10;;;5.50;;
2404;SDS011;1213;43.206;27.922;2023-07-20T02:56:06;6.17;;;5.57;;
2404;SDS011;1213;43.206;27.922;2023-07-20T02:58:33;6.60;;;6.00;;
2404;SDS011;1213;43.206;27.922;2023-07-20T03:01:02;8.13;;;6.23;;
2404;SDS011;1213;43.206;27.922;2023-07-20T03:03:28;6.23;;;5.43;;
2404;SDS011;1213;43.206;27.922;2023-07-20T03:05:53;8.17;;;7.27;;
2404;SDS011;1213;43.206;27.922;2023-07-20T03:08:20;7.67;;;6.60;;
2404;SDS011;1213;43.206;27.922;2023-07-20T03:10:47;7.07;;;6.37;;
2404;SDS011;1213;43.206;27.922;2023-07-20T03:13:12;7.83;;;6.83;;
2404;SDS011;1213;43.206;27.922;2023-07-20T03:15:39;11.70;;;6.57;;
2404;SDS011;1213;43.206;27.922;2023-07-20T03:18:04;8.60;;;7.30;;
2404;SDS011;1213;43.206;27.922;2023-07-20T03:20:33;10.10;;;7.67;;
2404;SDS011;1213;43.206;27.922;2023-07-20T03:23:01;8.23;;;7.43;;
2404;SDS011;1213;43.206;27.922;2023-07-20T03:25:26;9.73;;;7.60;;
2404;SDS011;1213;43.206;27.922;2023-07-20T03:27:52;9.73;;;8.00;;
2404;SDS011;1213;43.206;27.922;2023-07-20T03:30:20;9.03;;;7.53;;
2404;SDS011;1213;43.206;27.922;2023-07-20T03:32:46;9.13;;;8.20;;
2404;SDS011;1213;43.206;27.922;2023-07-20T03:35:14;13.10;;;8.50;;
2404;SDS011;1213;43.206;27.922;2023-07-20T03:37:43;8.77;;;7.10;;
2404;SDS011;1213;43.206;27.922;2023-07-20T03:40:08;8.00;;;6.77;;
2404;SDS011;1213;43.206;27.922;2023-07-20T03:42:35;11.33;;;7.73;;
2404;SDS011;1213;43.206;27.922;2023-07-20T03:45:01;9.23;;;7.03;;
2404;SDS011;1213;43.206;27.922;2023-07-20T03:47:28;7.70;;;6.63;;
2404;SDS011;1213;43.206;27.922;2023-07-20T03:49:53;11.47;;;7.70;;
2404;SDS011;1213;43.206;27.922;2023-07-20T03:52:19;8.20;;;7.50;;
2404;SDS011;1213;43.206;27.922;2023-07-20T03:54:45;10.53;;;8.87;;
2404;SDS011;1213;43.206;27.922;2023-07-20T03:57:11;11.07;;;8.10;;
2404;SDS011;1213;43.206;27.922;2023-07-20T03:59:39;14.03;;;7.87;;
2404;SDS011;1213;43.206;27.922;2023-07-20T04:02:09;9.13;;;8.10;;
2404;SDS011;1213;43.206;27.922;2023-07-20T04:04:35;9.30;;;8.33;;
2404;SDS011;1213;43.206;27.922;2023-07-20T04:07:00;7.97;;;7.17;;
2404;SDS011;1213;43.206;27.922;2023-07-20T04:09:26;9.50;;;7.50;;
2404;SDS011;1213;43.206;27.922;2023-07-20T04:11:51;12.47;;;6.40;;
2404;SDS011;1213;43.206;27.922;2023-07-20T04:14:16;7.03;;;5.83;;
2404;SDS011;1213;43.206;27.922;2023-07-20T04:16:42;7.17;;;6.27;;
2404;SDS011;1213;43.206;27.922;2023-07-20T04:19:07;8.20;;;6.73;;
2404;SDS011;1213;43.206;27.922;2023-07-20T04:21:39;15.27;;;7.00;;
2404;SDS011;1213;43.206;27.922;2023-07-20T04:24:06;9.77;;;6.30;;
2404;SDS011;1213;43.206;27.922;2023-07-20T04:26:31;38.73;;;10.80;;
2404;SDS011;1213;43.206;27.922;2023-07-20T04:28:58;11.40;;;7.33;;
2404;SDS011;1213;43.206;27.922;2023-07-20T04:31:24;11.43;;;7.63;;
2404;SDS011;1213;43.206;27.922;2023-07-20T04:33:50;10.63;;;6.43;;
2404;SDS011;1213;43.206;27.922;2023-07-20T04:36:16;21.43;;;6.57;;
2404;SDS011;1213;43.206;27.922;2023-07-20T04:38:45;11.80;;;6.40;;
2404;SDS011;1213;43.206;27.922;2023-07-20T04:41:11;7.03;;;5.87;;
2404;SDS011;1213;43.206;27.922;2023-07-20T04:43:43;9.57;;;6.97;;
2404;SDS011;1213;43.206;27.922;2023-07-20T04:46:09;11.33;;;7.53;;
2404;SDS011;1213;43.206;27.922;2023-07-20T04:48:35;10.20;;;8.77;;
2404;SDS011;1213;43.206;27.922;2023-07-20T04:51:01;10.47;;;6.77;;
2404;SDS011;1213;43.206;27.922;2023-07-20T04:53:27;14.77;;;6.03;;
2404;SDS011;1213;43.206;27.922;2023-07-20T04:55:53;8.20;;;5.47;;
2404;SDS011;1213;43.206;27.922;2023-07-20T04:58:19;11.60;;;6.07;;
2404;SDS011;1213;43.206;27.922;2023-07-20T05:00:48;7.27;;;5.40;;
2404;SDS011;1213;43.206;27.922;2023-07-20T05:03:14;10.80;;;5.90;;
2404;SDS011;1213;43.206;27.922;2023-07-20T05:05:40;10.40;;;6.43;;
2404;SDS011;1213;43.206;27.922;2023-07-20T05:08:05;8.03;;;6.43;;
2404;SDS011;1213;43.206;27.922;2023-07-20T05:10:30;12.83;;;6.30;;
2404;SDS011;1213;43.206;27.922;2023-07-20T05:12:57;6.77;;;5.80;;
2404;SDS011;1213;43.206;27.922;2023-07-20T05:15:23;9.13;;;6.00;;
2404;SDS011;1213;43.206;27.922;2023-07-20T05:17:48;13.50;;;6.13;;
2404;SDS011;1213;43.206;27.922;2023-07-20T05:20:14;18.80;;;7.50;;
2404;SDS011;1213;43.206;27.922;2023-07-20T05:22:39;7.13;;;6.10;;
2404;SDS011;1213;43.206;27.922;2023-07-20T05:25:08;8.13;;;6.60;;
2404;SDS011;1213;43.206;27.922;2023-07-20T05:27:38;14.63;;;7.10;;
2404;SDS011;1213;43.206;27.922;2023-07-20T05:30:04;13.03;;;6.97;;
2404;SDS011;1213;43.206;27.922;2023-07-20T05:32:32;5.97;;;5.20;;
2404;SDS011;1213;43.206;27.922;2023-07-20T05:34:58;8.50;;;6.07;;
2404;SDS011;1213;43.206;27.922;2023-07-20T05:37:23;12.33;;;6.10;;
2404;SDS011;1213;43.206;27.922;2023-07-20T05:39:48;14.07;;;8.00;;
2404;SDS011;1213;43.206;27.922;2023-07-20T05:42:14;8.33;;;6.70;;
2404;SDS011;1213;43.206;27.922;2023-07-20T05:44:40;7.07;;;6.10;;
2404;SDS011;1213;43.206;27.922;2023-07-20T05:47:06;11.93;;;6.00;;
2404;SDS011;1213;43.206;27.922;2023-07-20T05:49:31;8.73;;;5.23;;
2404;SDS011;1213;43.206;27.922;2023-07-20T05:51:57;7.30;;;4.90;;
2404;SDS011;1213;43.206;27.922;2023-07-20T05:54:25;12.73;;;5.60;;
2404;SDS011;1213;43.206;27.922;2023-07-20T05:56:51;9.87;;;6.30;;
2404;SDS011;1213;43.206;27.922;2023-07-20T05:59:17;11.27;;;5.50;;
2404;SDS011;1213;43.206;27.922;2023-07-20T06:01:43;13.70;;;6.77;;
2404;SDS011;1213;43.206;27.922;2023-07-20T06:04:09;8.17;;;6.23;;
2404;SDS011;1213;43.206;27.922;2023-07-20T06:06:34;9.13;;;5.30;;
2404;SDS011;1213;43.206;27.922;2023-07-20T06:09:00;9.70;;;6.30;;
2404;SDS011;1213;43.206;27.922;2023-07-20T06:11:29;10.43;;;5.57;;
2404;SDS011;1213;43.206;27.922;2023-07-20T06:13:55;13.40;;;5.93;;
2404;SDS011;1213;43.206;27.922;2023-07-20T06:16:21;8.23;;;5.70;;
2404;SDS011;1213;43.206;27.922;2023-07-20T06:18:46;13.50;;;6.40;;
2404;SDS011;1213;43.206;27.922;2023-07-20T06:21:12;12.07;;;8.27;;
2404;SDS011;1213;43.206;27.922;2023-07-20T06:23:37;6.03;;;5.30;;
2404;SDS011;1213;43.206;27.922;2023-07-20T06:26:03;14.20;;;7.03;;
2404;SDS011;1213;43.206;27.922;2023-07-20T06:28:28;11.70;;;5.90;;
2404;SDS011;1213;43.206;27.922;2023-07-20T06:30:59;18.23;;;7.70;;
2404;SDS011;1213;43.206;27.922;2023-07-20T06:33:27;9.00;;;6.13;;
2404;SDS011;1213;43.206;27.922;2023-07-20T06:35:53;9.00;;;7.23;;
2404;SDS011;1213;43.206;27.922;2023-07-20T06:38:19;11.03;;;7.00;;
2404;SDS011;1213;43.206;27.922;2023-07-20T06:40:47;5.63;;;4.17;;
2404;SDS011;1213;43.206;27.922;2023-07-20T06:43:13;12.30;;;3.30;;
2404;SDS011;1213;43.206;27.922;2023-07-20T06:45:39;12.80;;;3.70;;
2404;SDS011;1213;43.206;27.922;2023-07-20T06:48:04;4.90;;;2.60;;
2404;SDS011;1213;43.206;27.922;2023-07-20T06:50:29;6.73;;;2.70;;
2404;SDS011;1213;43.206;27.922;2023-07-20T06:52:55;6.00;;;3.07;;
2404;SDS011;1213;43.206;27.922;2023-07-20T06:55:20;5.37;;;3.73;;
2404;SDS011;1213;43.206;27.922;2023-07-20T06:57:46;5.67;;;3.77;;
2404;SDS011;1213;43.206;27.922;2023-07-20T07:00:12;4.97;;;3.30;;
2404;SDS011;1213;43.206;27.922;2023-07-20T07:02:40;6.10;;;3.40;;
2404;SDS011;1213;43.206;27.922;2023-07-20T07:05:05;4.20;;;3.17;;
2404;SDS011;1213;43.206;27.922;2023-07-20T07:07:31;6.93;;;2.90;;
2404;SDS011;1213;43.206;27.922;2023-07-20T07:09:57;5.90;;;3.03;;
2404;SDS011;1213;43.206;27.922;2023-07-20T07:12:23;4.50;;;3.00;;
2404;SDS011;1213;43.206;27.922;2023-07-20T07:14:48;11.37;;;5.73;;
2404;SDS011;1213;43.206;27.922;2023-07-20T07:17:14;4.40;;;3.20;;
2404;SDS011;1213;43.206;27.922;2023-07-20T07:19:39;8.73;;;3.57;;
2404;SDS011;1213;43.206;27.922;2023-07-20T07:22:05;7.00;;;3.70;;
2404;SDS011;1213;43.206;27.922;2023-07-20T07:24:31;8.10;;;3.57;;
2404;SDS011;1213;43.206;27.922;2023-07-20T07:27:01;10.30;;;3.47;;
2404;SDS011;1213;43.206;27.922;2023-07-20T07:29:28;11.97;;;3.83;;
2404;SDS011;1213;43.206;27.922;2023-07-20T07:31:54;8.13;;;3.20;;
2404;SDS011;1213;43.206;27.922;2023-07-20T07:34:19;12.33;;;3.33;;
2404;SDS011;1213;43.206;27.922;2023-07-20T07:36:45;9.00;;;3.10;;
2404;SDS011;1213;43.206;27.922;2023-07-20T07:39:13;6.33;;;3.73;;
2404;SDS011;1213;43.206;27.922;2023-07-20T07:41:38;5.30;;;2.93;;
2404;SDS011;1213;43.206;27.922;2023-07-20T07:44:04;3.73;;;2.80;;
2404;SDS011;1213;43.206;27.922;2023-07-20T07:46:30;9.33;;;3.87;;
2404;SDS011;1213;43.206;27.922;2023-07-20T07:48:57;5.50;;;3.50;;
2404;SDS011;1213;43.206;27.922;2023-07-20T07:51:22;4.67;;;4.00;;
2404;SDS011;1213;43.206;27.922;2023-07-20T07:53:49;5.30;;;3.47;;
2404;SDS011;1213;43.206;27.922;2023-07-20T07:56:15;14.20;;;4.40;;
2404;SDS011;1213;43.206;27.922;2023-07-20T07:58:41;7.00;;;3.67;;
2404;SDS011;1213;43.206;27.922;2023-07-20T08:01:07;6.87;;;3.30;;
2404;SDS011;1213;43.206;27.922;2023-07-20T08:03:32;3.53;;;2.83;;
2404;SDS011;1213;43.206;27.922;2023-07-20T08:05:58;6.10;;;2.70;;
2404;SDS011;1213;43.206;27.922;2023-07-20T08:08:26;8.40;;;3.17;;
2404;SDS011;1213;43.206;27.922;2023-07-20T08:10:55;3.30;;;2.33;;
2404;SDS011;1213;43.206;27.922;2023-07-20T08:13:20;3.63;;;2.43;;
2404;SDS011;1213;43.206;27.922;2023-07-20T08:15:49;6.13;;;3.40;;
2404;SDS011;1213;43.206;27.922;2023-07-20T08:18:16;3.80;;;2.73;;
2404;SDS011;1213;43.206;27.922;2023-07-20T08:20:45;7.23;;;2.70;;
2404;SDS011;1213;43.206;27.922;2023-07-20T08:23:14;6.50;;;3.57;;
2404;SDS011;1213;43.206;27.922;2023-07-20T08:25:39;6.00;;;2.70;;
2404;SDS011;1213;43.206;27.922;2023-07-20T08:28:08;6.67;;;4.87;;
2404;SDS011;1213;43.206;27.922;2023-07-20T08:30:42;5.13;;;3.10;;
2404;SDS011;1213;43.206;27.922;2023-07-20T08:33:09;4.33;;;3.07;;
2404;SDS011;1213;43.206;27.922;2023-07-20T08:35:36;8.63;;;3.60;;
2404;SDS011;1213;43.206;27.922;2023-07-20T08:38:02;8.03;;;3.63;;
2404;SDS011;1213;43.206;27.922;2023-07-20T08:40:29;3.17;;;2.40;;
2404;SDS011;1213;43.206;27.922;2023-07-20T08:42:59;6.80;;;2.93;;
2404;SDS011;1213;43.206;27.922;2023-07-20T08:45:27;6.90;;;3.27;;
2404;SDS011;1213;43.206;27.922;2023-07-20T08:47:55;5.73;;;3.07;;
2404;SDS011;1213;43.206;27.922;2023-07-20T08:50:22;5.17;;;3.17;;
2404;SDS011;1213;43.206;27.922;2023-07-20T08:52:48;6.53;;;3.20;;
2404;SDS011;1213;43.206;27.922;2023-07-20T08:55:17;7.90;;;3.63;;
2404;SDS011;1213;43.206;27.922;2023-07-20T08:57:44;6.03;;;3.80;;
2404;SDS011;1213;43.206;27.922;2023-07-20T09:00:11;4.40;;;3.80;;
2404;SDS011;1213;43.206;27.922;2023-07-20T09:02:39;6.63;;;3.47;;
2404;SDS011;1213;43.206;27.922;2023-07-20T09:05:08;3.53;;;3.20;;
2404;SDS011;1213;43.206;27.922;2023-07-20T09:07:35;9.70;;;5.10;;
2404;SDS011;1213;43.206;27.922;2023-07-20T09:10:01;6.10;;;3.50;;
2404;SDS011;1213;43.206;27.922;2023-07-20T09:12:31;5.87;;;3.77;;
2404;SDS011;1213;43.206;27.922;2023-07-20T09:15:03;8.53;;;4.17;;
2404;SDS011;1213;43.206;27.922;2023-07-20T09:17:29;7.00;;;3.80;;
2404;SDS011;1213;43.206;27.922;2023-07-20T09:19:56;5.93;;;3.60;;
2404;SDS011;1213;43.206;27.922;2023-07-20T09:22:29;4.70;;;3.20;;
2404;SDS011;1213;43.206;27.922;2023-07-20T09:24:56;4.50;;;3.00;;
2404;SDS011;1213;43.206;27.922;2023-07-20T09:27:22;5.07;;;4.07;;
2404;SDS011;1213;43.206;27.922;2023-07-20T09:29:54;4.53;;;3.70;;
2404;SDS011;1213;43.206;27.922;2023-07-20T09:32:21;5.83;;;3.30;;
2404;SDS011;1213;43.206;27.922;2023-07-20T09:34:47;5.63;;;2.70;;
2404;SDS011;1213;43.206;27.922;2023-07-20T09:37:18;8.53;;;3.03;;
2404;SDS011;1213;43.206;27.922;2023-07-20T09:39:45;5.00;;;3.27;;
2404;SDS011;1213;43.206;27.922;2023-07-20T09:42:15;4.50;;;4.10;;
2404;SDS011;1213;43.206;27.922;2023-07-20T09:44:43;5.00;;;3.90;;
2404;SDS011;1213;43.206;27.922;2023-07-20T09:47:12;10.53;;;3.80;;
2404;SDS011;1213;43.206;27.922;2023-07-20T09:49:40;8.60;;;4.07;;
2404;SDS011;1213;43.206;27.922;2023-07-20T09:52:07;4.30;;;3.80;;
2404;SDS011;1213;43.206;27.922;2023-07-20T09:54:37;9.17;;;4.27;;
2404;SDS011;1213;43.206;27.922;2023-07-20T09:57:03;6.10;;;4.20;;
2404;SDS011;1213;43.206;27.922;2023-07-20T09:59:33;11.60;;;4.77;;
2404;SDS011;1213;43.206;27.922;2023-07-20T10:01:59;6.60;;;4.40;;
2404;SDS011;1213;43.206;27.922;2023-07-20T10:04:29;5.43;;;3.77;;
2404;SDS011;1213;43.206;27.922;2023-07-20T10:06:55;5.63;;;4.60;;
2404;SDS011;1213;43.206;27.922;2023-07-20T10:09:24;4.03;;;3.63;;
2404;SDS011;1213;43.206;27.922;2023-07-20T10:11:51;9.43;;;5.50;;
2404;SDS011;1213;43.206;27.922;2023-07-20T10:14:19;8.00;;;4.00;;
2404;SDS011;1213;43.206;27.922;2023-07-20T10:16:57;8.33;;;4.77;;
2404;SDS011;1213;43.206;27.922;2023-07-20T10:19:42;7.17;;;4.93;;
2404;SDS011;1213;43.206;27.922;2023-07-20T10:22:17;8.63;;;5.77;;
2404;SDS011;1213;43.206;27.922;2023-07-20T10:24:45;8.80;;;4.73;;
2404;SDS011;1213;43.206;27.922;2023-07-20T10:27:12;7.13;;;4.87;;
2404;SDS011;1213;43.206;27.922;2023-07-20T10:29:39;5.83;;;4.70;;
2404;SDS011;1213;43.206;27.922;2023-07-20T10:32:05;5.87;;;4.87;;
2404;SDS011;1213;43.206;27.922;2023-07-20T10:34:33;8.80;;;7.40;;
2404;SDS011;1213;43.206;27.922;2023-07-20T10:36:58;6.60;;;5.43;;
2404;SDS011;1213;43.206;27.922;2023-07-20T10:41:59;5.33;;;3.77;;
2404;SDS011;1213;43.206;27.922;2023-07-20T10:44:27;5.60;;;4.80;;
2404;SDS011;1213;43.206;27.922;2023-07-20T10:46:52;6.83;;;4.73;;
2404;SDS011;1213;43.206;27.922;2023-07-20T10:49:25;10.47;;;6.03;;
2404;SDS011;1213;43.206;27.922;2023-07-20T10:51:58;6.63;;;5.37;;
2404;SDS011;1213;43.206;27.922;2023-07-20T10:56:54;8.70;;;6.27;;
2404;SDS011;1213;43.206;27.922;2023-07-20T11:01:49;10.80;;;6.10;;
2404;SDS011;1213;43.206;27.922;2023-07-20T11:04:37;12.50;;;4.70;;
2404;SDS011;1213;43.206;27.922;2023-07-20T11:07:03;8.47;;;5.77;;
2404;SDS011;1213;43.206;27.922;2023-07-20T11:09:33;8.13;;;6.10;;
2404;SDS011;1213;43.206;27.922;2023-07-20T11:12:09;6.40;;;4.10;;
2404;SDS011;1213;43.206;27.922;2023-07-20T11:14:34;9.83;;;5.27;;
2404;SDS011;1213;43.206;27.922;2023-07-20T11:17:12;12.23;;;6.47;;
2404;SDS011;1213;43.206;27.922;2023-07-20T11:19:39;9.03;;;4.63;;
2404;SDS011;1213;43.206;27.922;2023-07-20T11:22:05;10.03;;;4.30;;
2404;SDS011;1213;43.206;27.922;2023-07-20T11:24:34;6.40;;;5.13;;
2404;SDS011;1213;43.206;27.922;2023-07-20T11:27:05;8.80;;;5.70;;
2404;SDS011;1213;43.206;27.922;2023-07-20T11:29:32;8.10;;;6.10;;
2404;SDS011;1213;43.206;27.922;2023-07-20T11:31:57;15.37;;;11.20;;
2404;SDS011;1213;43.206;27.922;2023-07-20T11:34:26;6.47;;;5.50;;
2404;SDS011;1213;43.206;27.922;2023-07-20T11:36:52;12.23;;;6.10;;
2404;SDS011;1213;43.206;27.922;2023-07-20T11:39:19;11.97;;;6.00;;
2404;SDS011;1213;43.206;27.922;2023-07-20T11:41:47;6.07;;;5.47;;
2404;SDS011;1213;43.206;27.922;2023-07-20T11:44:17;6.90;;;4.90;;
2404;SDS011;1213;43.206;27.922;2023-07-20T11:46:43;5.13;;;4.40;;
2404;SDS011;1213;43.206;27.922;2023-07-20T11:49:09;8.27;;;5.33;;
2404;SDS011;1213;43.206;27.922;2023-07-20T11:51:35;8.43;;;5.47;;
2404;SDS011;1213;43.206;27.922;2023-07-20T11:54:03;9.07;;;6.73;;
2404;SDS011;1213;43.206;27.922;2023-07-20T11:56:30;10.03;;;5.60;;
2404;SDS011;1213;43.206;27.922;2023-07-20T11:58:56;8.57;;;5.47;;
2404;SDS011;1213;43.206;27.922;2023-07-20T12:01:24;6.83;;;6.00;;
2404;SDS011;1213;43.206;27.922;2023-07-20T12:03:51;6.70;;;5.73;;
2404;SDS011;1213;43.206;27.922;2023-07-20T12:06:16;6.80;;;4.93;;
2404;SDS011;1213;43.206;27.922;2023-07-20T12:08:42;11.40;;;5.13;;
2404;SDS011;1213;43.206;27.922;2023-07-20T12:11:09;6.33;;;4.80;;
2404;SDS011;1213;43.206;27.922;2023-07-20T12:13:39;7.80;;;6.20;;
2404;SDS011;1213;43.206;27.922;2023-07-20T12:16:12;7.33;;;6.27;;
2404;SDS011;1213;43.206;27.922;2023-07-20T12:18:42;8.17;;;6.30;;
2404;SDS011;1213;43.206;27.922;2023-07-20T12:21:08;6.20;;;5.27;;
2404;SDS011;1213;43.206;27.922;2023-07-20T12:23:39;7.37;;;5.07;;
2404;SDS011;1213;43.206;27.922;2023-07-20T12:26:08;12.10;;;7.23;;
2404;SDS011;1213;43.206;27.922;2023-07-20T12:28:38;12.20;;;5.57;;
2404;SDS011;1213;43.206;27.922;2023-07-20T12:31:07;11.73;;;5.40;;
2404;SDS011;1213;43.206;27.922;2023-07-20T12:33:35;6.47;;;5.67;;
2404;SDS011;1213;43.206;27.922;2023-07-20T12:36:01;8.67;;;6.03;;
2404;SDS011;1213;43.206;27.922;2023-07-20T12:38:27;9.60;;;5.43;;
2404;SDS011;1213;43.206;27.922;2023-07-20T12:41:00;5.60;;;4.93;;
2404;SDS011;1213;43.206;27.922;2023-07-20T12:43:26;12.33;;;5.07;;
2404;SDS011;1213;43.206;27.922;2023-07-20T12:45:52;5.90;;;5.30;;
2404;SDS011;1213;43.206;27.922;2023-07-20T12:48:18;7.13;;;4.27;;
2404;SDS011;1213;43.206;27.922;2023-07-20T12:50:43;5.83;;;4.90;;
2404;SDS011;1213;43.206;27.922;2023-07-20T12:53:08;6.20;;;4.50;;
2404;SDS011;1213;43.206;27.922;2023-07-20T12:55:34;5.47;;;4.97;;
2404;SDS011;1213;43.206;27.922;2023-07-20T12:57:59;8.70;;;6.17;;
2404;SDS011;1213;43.206;27.922;2023-07-20T13:00:25;7.27;;;5.07;;
2404;SDS011;1213;43.206;27.922;2023-07-20T13:02:51;6.97;;;6.17;;
2404;SDS011;1213;43.206;27.922;2023-07-20T13:05:16;6.67;;;5.33;;
2404;SDS011;1213;43.206;27.922;2023-07-20T13:07:43;7.47;;;4.70;;
2404;SDS011;1213;43.206;27.922;2023-07-20T13:10:09;5.73;;;5.13;;
2404;SDS011;1213;43.206;27.922;2023-07-20T13:12:35;5.90;;;5.30;;
2404;SDS011;1213;43.206;27.922;2023-07-20T13:15:03;10.53;;;6.50;;
2404;SDS011;1213;43.206;27.922;2023-07-20T13:17:31;8.33;;;5.93;;
2404;SDS011;1213;43.206;27.922;2023-07-20T13:19:58;11.83;;;9.87;;
2404;SDS011;1213;43.206;27.922;2023-07-20T13:22:24;10.20;;;6.23;;
2404;SDS011;1213;43.206;27.922;2023-07-20T13:24:49;6.43;;;5.40;;
2404;SDS011;1213;43.206;27.922;2023-07-20T13:27:15;8.47;;;6.00;;
2404;SDS011;1213;43.206;27.922;2023-07-20T13:29:41;11.80;;;5.80;;
2404;SDS011;1213;43.206;27.922;2023-07-20T13:32:07;5.97;;;5.27;;
2404;SDS011;1213;43.206;27.922;2023-07-20T13:34:33;14.53;;;5.70;;
2404;SDS011;1213;43.206;27.922;2023-07-20T13:36:59;6.37;;;5.80;;
2404;SDS011;1213;43.206;27.922;2023-07-20T13:39:25;9.43;;;5.90;;
2404;SDS011;1213;43.206;27.922;2023-07-20T13:41:52;7.80;;;5.73;;
2404;SDS011;1213;43.206;27.922;2023-07-20T13:44:19;6.30;;;5.60;;
2404;SDS011;1213;43.206;27.922;2023-07-20T13:46:45;6.87;;;5.83;;
2404;SDS011;1213;43.206;27.922;2023-07-20T13:49:11;11.17;;;6.30;;
2404;SDS011;1213;43.206;27.922;2023-07-20T13:51:36;14.77;;;6.53;;
2404;SDS011;1213;43.206;27.922;2023-07-20T13:54:03;7.63;;;6.03;;
2404;SDS011;1213;43.206;27.922;2023-07-20T13:56:29;7.80;;;5.90;;
2404;SDS011;1213;43.206;27.922;2023-07-20T13:58:54;7.50;;;6.80;;
2404;SDS011;1213;43.206;27.922;2023-07-20T14:01:20;9.00;;;6.80;;
2404;SDS011;1213;43.206;27.922;2023-07-20T14:03:48;8.50;;;6.70;;
2404;SDS011;1213;43.206;27.922;2023-07-20T14:06:13;8.83;;;6.57;;
2404;SDS011;1213;43.206;27.922;2023-07-20T14:08:39;7.37;;;6.00;;
2404;SDS011;1213;43.206;27.922;2023-07-20T14:11:06;8.90;;;6.03;;
2404;SDS011;1213;43.206;27.922;2023-07-20T14:13:31;10.87;;;7.43;;
2404;SDS011;1213;43.206;27.922;2023-07-20T14:15:57;6.90;;;6.30;;
2404;SDS011;1213;43.206;27.922;2023-07-20T14:18:22;8.80;;;5.70;;
2404;SDS011;1213;43.206;27.922;2023-07-20T14:20:49;6.77;;;5.80;;
2404;SDS011;1213;43.206;27.922;2023-07-20T14:23:15;6.50;;;5.80;;
2404;SDS011;1213;43.206;27.922;2023-07-20T14:25:40;7.23;;;5.20;;
2404;SDS011;1213;43.206;27.922;2023-07-20T14:28:07;10.37;;;6.53;;
2404;SDS011;1213;43.206;27.922;2023-07-20T14:30:32;5.97;;;5.10;;
2404;SDS011;1213;43.206;27.922;2023-07-20T14:32:58;11.23;;;6.07;;
2404;SDS011;1213;43.206;27.922;2023-07-20T14:35:24;16.60;;;14.63;;
2404;SDS011;1213;43.206;27.922;2023-07-20T14:37:49;7.17;;;5.97;;
2404;SDS011;1213;43.206;27.922;2023-07-20T14:40:15;6.60;;;6.00;;
2404;SDS011;1213;43.206;27.922;2023-07-20T14:42:40;9.70;;;7.50;;
2404;SDS011;1213;43.206;27.922;2023-07-20T14:45:06;6.33;;;5.83;;
2404;SDS011;1213;43.206;27.922;2023-07-20T14:47:33;10.27;;;6.17;;
2404;SDS011;1213;43.206;27.922;2023-07-20T14:50:00;7.63;;;6.03;;
2404;SDS011;1213;43.206;27.922;2023-07-20T14:52:27;7.30;;;6.60;;
2404;SDS011;1213;43.206;27.922;2023-07-20T14:54:53;8.20;;;7.10;;
2404;SDS011;1213;43.206;27.922;2023-07-20T14:57:20;6.63;;;5.93;;
2404;SDS011;1213;43.206;27.922;2023-07-20T14:59:48;8.03;;;6.80;;
2404;SDS011;1213;43.206;27.922;2023-07-20T15:02:14;10.47;;;7.90;;
2404;SDS011;1213;43.206;27.922;2023-07-20T15:04:49;10.33;;;6.70;;
2404;SDS011;1213;43.206;27.922;2023-07-20T15:07:19;11.53;;;8.40;;
2404;SDS011;1213;43.206;27.922;2023-07-20T15:09:47;8.33;;;7.20;;
2404;SDS011;1213;43.206;27.922;2023-07-20T15:12:12;9.93;;;8.47;;
2404;SDS011;1213;43.206;27.922;2023-07-20T15:14:39;9.23;;;8.33;;